createdAt,value
2022-08-01T00:00:10.168Z,11.10
2022-08-01T00:02:56.531Z,10.90
2022-08-01T00:05:22.836Z,10.40
2022-08-01T00:07:49.145Z,10.40
2022-08-01T00:10:16.465Z,10.00
2022-08-01T00:12:43.398Z,9.40
2022-08-01T00:15:11.760Z,9.40
2022-08-01T00:17:38.622Z,9.80
2022-08-01T00:20:08.825Z,9.80
2022-08-01T00:22:35.498Z,9.60
2022-08-01T00:25:03.375Z,10.30
2022-08-01T00:27:29.765Z,9.60
2022-08-01T00:30:13.586Z,10.90
2022-08-01T00:32:44.202Z,11.00
2022-08-01T00:35:10.914Z,9.80
2022-08-01T00:37:37.253Z,11.30
2022-08-01T00:40:04.045Z,10.80
2022-08-01T00:42:30.317Z,12.30
2022-08-01T00:44:57.343Z,11.50
2022-08-01T00:47:23.555Z,12.10
2022-08-01T00:49:49.880Z,11.60
2022-08-01T00:52:16.115Z,12.70
2022-08-01T00:54:42.945Z,11.80
2022-08-01T00:57:10.228Z,12.00
2022-08-01T00:59:37.435Z,12.30
2022-08-01T01:02:04.098Z,12.00
2022-08-01T01:04:40.760Z,11.10
2022-08-01T01:07:13.521Z,11.30
2022-08-01T01:09:44.527Z,11.50
2022-08-01T01:12:19.723Z,11.60
2022-08-01T01:15:04.636Z,12.00
2022-08-01T01:17:50.909Z,10.70
2022-08-01T01:20:22.227Z,11.00
2022-08-01T01:22:52.253Z,11.80
2022-08-01T01:25:37.082Z,12.70
2022-08-01T01:28:10.799Z,11.90
2022-08-01T01:30:39.190Z,12.10
2022-08-01T01:33:07.730Z,12.70
2022-08-01T01:35:36.476Z,12.90
2022-08-01T01:38:09.469Z,12.40
2022-08-01T01:40:36.629Z,14.20
2022-08-01T01:43:02.917Z,14.00
2022-08-01T01:45:29.859Z,13.50
2022-08-01T01:47:57.429Z,12.90
2022-08-01T01:50:25.353Z,13.20
2022-08-01T01:52:52.479Z,14.00
2022-08-01T01:55:20.191Z,13.20
2022-08-01T01:57:46.504Z,13.80
2022-08-01T02:00:13.595Z,13.40
2022-08-01T02:02:41.061Z,13.60
2022-08-01T02:05:09.507Z,13.90
2022-08-01T02:07:37.461Z,13.90
2022-08-01T02:10:05.309Z,13.90
2022-08-01T02:12:34.759Z,13.90
2022-08-01T02:15:01.844Z,14.00
2022-08-01T02:17:28.341Z,13.50
2022-08-01T02:19:54.782Z,14.50
2022-08-01T02:22:38.239Z,13.90
2022-08-01T02:25:18.310Z,14.50
2022-08-01T02:28:00.880Z,15.10
2022-08-01T02:30:32.407Z,14.80
2022-08-01T02:33:03.147Z,15.40
2022-08-01T02:35:32.483Z,15.70
2022-08-01T02:38:00.979Z,14.30
2022-08-01T02:40:29.206Z,12.00
2022-08-01T02:42:56.651Z,15.40
2022-08-01T02:45:25.939Z,13.30
2022-08-01T02:47:56.578Z,12.40
2022-08-01T02:50:24.312Z,12.60
2022-08-01T02:52:51.691Z,11.80
2022-08-01T02:55:18.835Z,13.50
2022-08-01T02:57:52.188Z,13.40
2022-08-01T03:00:19.467Z,13.20
2022-08-01T03:02:48.814Z,13.20
2022-08-01T03:05:15.475Z,14.80
2022-08-01T03:07:42.097Z,15.90
2022-08-01T03:10:09.727Z,17.60
2022-08-01T03:12:37.263Z,17.40
2022-08-01T03:15:05.320Z,18.50
2022-08-01T03:17:32.305Z,19.40
2022-08-01T03:19:59.652Z,19.50
2022-08-01T03:22:28.466Z,21.20
2022-08-01T03:24:55.717Z,20.50
2022-08-01T03:27:23.122Z,20.20
2022-08-01T03:29:50.496Z,20.50
2022-08-01T03:32:18.549Z,20.10
2022-08-01T03:34:45.354Z,19.40
2022-08-01T03:37:16.574Z,19.80
2022-08-01T03:40:03.162Z,20.60
2022-08-01T03:42:38.293Z,21.30
2022-08-01T03:45:09.769Z,19.80
2022-08-01T03:47:44.633Z,20.80
2022-08-01T03:50:12.583Z,22.10
2022-08-01T03:52:40.081Z,21.10
2022-08-01T03:55:07.809Z,20.80
2022-08-01T03:57:35.493Z,22.40
2022-08-01T04:00:08.026Z,23.10
2022-08-01T04:02:38.724Z,23.10
2022-08-01T04:05:05.756Z,21.70
2022-08-01T04:07:33.517Z,22.30
2022-08-01T04:10:00.008Z,21.30
2022-08-01T04:12:26.231Z,21.20
2022-08-01T04:14:52.566Z,22.60
2022-08-01T04:17:19.232Z,22.20
2022-08-01T04:19:45.695Z,24.60
2022-08-01T04:22:14.190Z,25.10
2022-08-01T04:24:42.479Z,26.60
2022-08-01T04:27:11.861Z,30.20
2022-08-01T04:29:38.822Z,33.90
2022-08-01T04:32:08.289Z,34.50
2022-08-01T04:34:35.234Z,33.80
2022-08-01T04:37:01.794Z,34.10
2022-08-01T04:39:31.721Z,32.40
2022-08-01T04:42:00.708Z,31.20
2022-08-01T04:44:32.322Z,29.80
2022-08-01T04:47:01.374Z,29.40
2022-08-01T04:49:28.045Z,29.00
2022-08-01T04:52:00.373Z,32.80
2022-08-01T04:54:27.627Z,31.70
2022-08-01T04:56:59.049Z,30.00
2022-08-01T04:59:41.335Z,30.70
2022-08-01T05:02:17.003Z,29.40
2022-08-01T05:04:44.483Z,29.00
2022-08-01T05:07:12.014Z,29.00
2022-08-01T05:09:39.159Z,29.70
2022-08-01T05:12:06.608Z,28.70
2022-08-01T05:14:33.631Z,30.10
2022-08-01T05:17:03.556Z,27.80
2022-08-01T05:19:33.650Z,28.30
2022-08-01T05:22:01.667Z,27.20
2022-08-01T05:24:31.261Z,28.50
2022-08-01T05:26:59.140Z,25.90
2022-08-01T05:29:26.192Z,24.40
2022-08-01T05:31:53.040Z,28.30
2022-08-01T05:34:20.323Z,26.10
2022-08-01T05:36:47.302Z,24.20
2022-08-01T05:39:14.204Z,21.20
2022-08-01T05:41:40.870Z,22.20
2022-08-01T05:44:07.454Z,22.10
2022-08-01T05:46:34.208Z,21.60
2022-08-01T05:49:01.725Z,20.90
2022-08-01T05:51:28.182Z,21.90
2022-08-01T05:53:54.378Z,21.30
2022-08-01T05:56:21.317Z,21.00
2022-08-01T05:58:49.637Z,19.60
2022-08-01T06:01:16.640Z,19.20
2022-08-01T06:03:42.921Z,20.00
2022-08-01T06:06:09.220Z,18.90
2022-08-01T06:08:35.493Z,20.40
2022-08-01T06:11:02.070Z,18.80
2022-08-01T06:13:28.313Z,16.80
2022-08-01T06:15:54.558Z,15.80
2022-08-01T06:18:20.933Z,12.60
2022-08-01T06:20:47.380Z,12.60
2022-08-01T06:23:32.304Z,11.20
2022-08-01T06:25:59.359Z,12.20
2022-08-01T06:28:25.578Z,12.20
2022-08-01T06:30:52.293Z,11.40
2022-08-01T06:33:18.507Z,11.50
2022-08-01T06:35:45.036Z,11.10
2022-08-01T06:38:11.700Z,11.00
2022-08-01T06:40:38.751Z,10.90
2022-08-01T06:43:05.234Z,9.30
2022-08-01T06:45:31.417Z,8.90
2022-08-01T06:47:57.687Z,9.20
2022-08-01T06:50:23.947Z,8.50
2022-08-01T06:52:50.248Z,9.00
2022-08-01T06:55:16.595Z,8.70
2022-08-01T06:57:50.502Z,9.10
2022-08-01T07:00:21.166Z,8.20
2022-08-01T07:02:47.400Z,8.30
2022-08-01T07:05:13.743Z,7.80
2022-08-01T07:07:40.024Z,7.30
2022-08-01T07:10:08.730Z,7.00
2022-08-01T07:12:38.339Z,8.00
2022-08-01T07:15:06.086Z,7.20
2022-08-01T07:17:32.544Z,7.60
2022-08-01T07:19:59.020Z,6.90
2022-08-01T07:22:25.313Z,7.40
2022-08-01T07:24:54.379Z,6.80
2022-08-01T07:27:23.993Z,7.10
2022-08-01T07:29:52.438Z,6.20
2022-08-01T07:32:21.285Z,6.40
2022-08-01T07:34:47.745Z,6.10
2022-08-01T07:37:14.092Z,6.20
2022-08-01T07:39:40.485Z,5.80
2022-08-01T07:42:08.392Z,5.60
2022-08-01T07:44:35.673Z,4.80
2022-08-01T07:47:01.891Z,5.00
2022-08-01T07:49:28.456Z,5.20
2022-08-01T07:52:13.414Z,4.70
2022-08-01T07:54:39.952Z,4.80
2022-08-01T07:57:06.345Z,4.30
2022-08-01T07:59:32.769Z,4.20
2022-08-01T08:01:59.699Z,4.30
2022-08-01T08:04:27.061Z,3.80
2022-08-01T08:06:53.815Z,4.80
2022-08-01T08:09:20.050Z,3.90
2022-08-01T08:11:48.297Z,3.40
2022-08-01T08:14:17.358Z,3.60
2022-08-01T08:16:44.218Z,3.20
2022-08-01T08:19:10.835Z,3.00
2022-08-01T08:21:38.040Z,3.30
2022-08-01T08:24:19.743Z,2.50
2022-08-01T08:26:52.226Z,2.90
2022-08-01T08:29:20.179Z,3.10
2022-08-01T08:31:51.889Z,3.30
2022-08-01T08:34:19.649Z,2.70
2022-08-01T08:36:47.821Z,2.90
2022-08-01T08:39:15.202Z,2.70
2022-08-01T08:41:44.399Z,2.60
2022-08-01T08:44:16.595Z,2.50
2022-08-01T08:46:51.314Z,2.70
2022-08-01T08:49:20.607Z,2.50
2022-08-01T08:51:51.088Z,2.60
2022-08-01T08:54:21.054Z,2.60
2022-08-01T08:56:47.838Z,2.90
2022-08-01T08:59:14.366Z,2.80
2022-08-01T09:01:41.882Z,2.70
2022-08-01T09:04:08.640Z,3.70
2022-08-01T09:06:34.900Z,2.60
2022-08-01T09:09:01.317Z,2.80
2022-08-01T09:11:27.543Z,2.70
2022-08-01T09:14:11.795Z,2.60
2022-08-01T09:16:46.525Z,2.30
2022-08-01T09:19:40.064Z,3.20
2022-08-01T09:22:08.283Z,2.50
2022-08-01T09:24:35.642Z,2.80
2022-08-01T09:27:19.739Z,3.20
2022-08-01T09:30:01.498Z,3.10
2022-08-01T09:32:36.315Z,3.10
2022-08-01T09:35:44.877Z,3.50
2022-08-01T09:38:19.924Z,3.80
2022-08-01T09:40:49.549Z,3.90
2022-08-01T09:43:17.525Z,3.50
2022-08-01T09:45:45.866Z,3.60
2022-08-01T09:48:18.182Z,3.00
2022-08-01T09:50:49.089Z,3.70
2022-08-01T09:53:24.304Z,3.40
2022-08-01T09:56:09.482Z,3.40
2022-08-01T09:59:00.021Z,3.20
2022-08-01T10:01:36.045Z,3.80
2022-08-01T10:04:16.908Z,3.80
2022-08-01T10:06:46.000Z,3.80
2022-08-01T10:09:14.024Z,3.50
2022-08-01T10:11:44.672Z,3.40
2022-08-01T10:14:18.144Z,3.70
2022-08-01T10:16:45.803Z,3.50
2022-08-01T10:19:15.289Z,3.80
2022-08-01T10:21:56.992Z,3.30
2022-08-01T10:24:28.017Z,3.60
2022-08-01T10:27:05.984Z,3.10
2022-08-01T10:29:59.269Z,3.90
2022-08-01T10:32:32.183Z,4.00
2022-08-01T10:34:59.376Z,3.30
2022-08-01T10:37:52.484Z,3.40
2022-08-01T10:40:30.479Z,3.10
2022-08-01T10:42:58.408Z,3.10
2022-08-01T10:45:26.838Z,3.10
2022-08-01T10:48:20.684Z,2.90
2022-08-01T10:50:50.280Z,3.10
2022-08-01T10:53:23.224Z,3.40
2022-08-01T10:55:56.646Z,3.00
2022-08-01T10:58:42.532Z,3.30
2022-08-01T11:01:15.425Z,3.10
2022-08-01T11:04:06.288Z,2.50
2022-08-01T11:06:35.307Z,2.50
2022-08-01T11:09:06.115Z,2.50
2022-08-01T11:12:24.767Z,2.90
2022-08-01T11:15:03.009Z,3.40
2022-08-01T11:17:54.751Z,2.80
2022-08-01T11:20:26.621Z,3.50
2022-08-01T11:23:00.127Z,3.30
2022-08-01T11:26:03.223Z,3.10
2022-08-01T11:28:31.326Z,2.90
2022-08-01T11:31:07.787Z,3.20
2022-08-01T11:33:40.694Z,3.00
2022-08-01T11:36:14.833Z,3.00
2022-08-01T11:38:49.408Z,3.10
2022-08-01T11:41:42.358Z,3.30
2022-08-01T11:44:16.810Z,3.10
2022-08-01T11:47:08.945Z,3.10
2022-08-01T11:49:36.507Z,3.20
2022-08-01T11:52:26.159Z,4.10
2022-08-01T11:55:10.199Z,3.90
2022-08-01T11:57:39.208Z,3.40
2022-08-01T12:00:15.249Z,4.00
2022-08-01T12:02:45.725Z,4.10
2022-08-01T12:05:18.445Z,3.80
2022-08-01T12:07:46.501Z,4.10
2022-08-01T12:10:17.866Z,4.20
2022-08-01T12:12:52.114Z,4.10
2022-08-01T12:15:19.801Z,3.90
2022-08-01T12:17:58.096Z,4.00
2022-08-01T12:20:31.693Z,4.40
2022-08-01T12:23:01.273Z,4.50
2022-08-01T12:25:27.714Z,3.70
2022-08-01T12:27:56.552Z,3.40
2022-08-01T12:30:24.559Z,3.50
2022-08-01T12:32:52.493Z,3.90
2022-08-01T12:35:23.278Z,4.00
2022-08-01T12:37:51.604Z,3.90
2022-08-01T12:40:21.706Z,3.90
2022-08-01T12:42:50.499Z,3.60
2022-08-01T12:45:20.237Z,3.90
2022-08-01T12:47:47.289Z,4.30
2022-08-01T12:50:16.230Z,4.00
2022-08-01T12:52:42.950Z,4.00
2022-08-01T12:55:22.159Z,3.90
2022-08-01T12:57:53.449Z,4.30
2022-08-01T13:00:24.297Z,4.40
2022-08-01T13:03:09.854Z,4.10
2022-08-01T13:05:48.577Z,3.90
2022-08-01T13:08:16.036Z,4.80
2022-08-01T13:10:43.005Z,4.00
2022-08-01T13:13:10.170Z,4.00
2022-08-01T13:15:41.599Z,3.80
2022-08-01T13:18:28.281Z,4.20
2022-08-01T13:21:15.757Z,4.30
2022-08-01T13:24:03.903Z,4.70
2022-08-01T13:26:48.261Z,4.40
2022-08-01T13:29:20.823Z,4.30
2022-08-01T13:31:48.763Z,4.80
2022-08-01T13:34:16.010Z,5.10
2022-08-01T13:36:48.857Z,4.70
2022-08-01T13:39:35.084Z,4.90
2022-08-01T13:42:01.361Z,4.60
2022-08-01T13:44:27.733Z,4.70
2022-08-01T13:46:54.009Z,5.00
2022-08-01T13:49:21.134Z,4.80
2022-08-01T13:51:50.970Z,4.70
2022-08-01T13:54:18.183Z,5.10
2022-08-01T13:56:44.530Z,5.20
2022-08-01T13:59:10.737Z,4.80
2022-08-01T14:01:37.511Z,4.30
2022-08-01T14:04:04.572Z,4.60
2022-08-01T14:06:31.868Z,4.50
2022-08-01T14:08:58.401Z,5.10
2022-08-01T14:11:24.785Z,4.60
2022-08-01T14:13:51.078Z,4.70
2022-08-01T14:16:17.681Z,4.30
2022-08-01T14:18:44.253Z,4.80
2022-08-01T14:21:10.955Z,5.10
2022-08-01T14:23:37.412Z,4.90
2022-08-01T14:26:09.733Z,5.30
2022-08-01T14:28:39.059Z,4.90
2022-08-01T14:31:06.482Z,5.30
2022-08-01T14:33:34.519Z,5.60
2022-08-01T14:36:20.648Z,5.50
2022-08-01T14:39:00.427Z,4.80
2022-08-01T14:41:28.342Z,5.70
2022-08-01T14:43:54.662Z,4.90
2022-08-01T14:46:21.134Z,5.60
2022-08-01T14:48:47.472Z,5.40
2022-08-01T14:51:13.929Z,4.80
2022-08-01T14:53:40.303Z,4.80
2022-08-01T14:56:13.054Z,5.60
2022-08-01T14:58:39.309Z,4.90
2022-08-01T15:01:06.252Z,5.00
2022-08-01T15:03:32.605Z,5.50
2022-08-01T15:05:59.001Z,6.10
2022-08-01T15:08:25.326Z,5.40
2022-08-01T15:10:51.962Z,4.90
2022-08-01T15:13:18.676Z,5.50
2022-08-01T15:15:47.166Z,5.10
2022-08-01T15:18:13.630Z,5.20
2022-08-01T15:20:39.970Z,6.10
2022-08-01T15:23:06.438Z,5.60
2022-08-01T15:25:41.385Z,5.90
2022-08-01T15:28:12.284Z,5.20
2022-08-01T15:30:39.173Z,5.00
2022-08-01T15:33:05.738Z,5.50
2022-08-01T15:35:32.166Z,5.70
2022-08-01T15:37:58.404Z,5.50
2022-08-01T15:40:24.781Z,5.60
2022-08-01T15:42:52.502Z,5.40
2022-08-01T15:45:45.805Z,6.00
2022-08-01T15:48:06.974Z,5.50
2022-08-01T15:50:33.198Z,5.90
2022-08-01T15:52:59.615Z,5.80
2022-08-01T15:55:25.899Z,6.40
2022-08-01T15:57:52.177Z,5.60
2022-08-01T16:00:18.404Z,6.40
2022-08-01T16:02:44.773Z,6.20
2022-08-01T16:05:11.137Z,6.10
2022-08-01T16:07:37.547Z,6.50
2022-08-01T16:10:23.841Z,6.60
2022-08-01T16:12:50.139Z,6.20
2022-08-01T16:15:16.359Z,6.60
2022-08-01T16:17:44.687Z,6.40
2022-08-01T16:20:11.199Z,6.50
2022-08-01T16:22:37.433Z,6.80
2022-08-01T16:25:05.174Z,6.50
2022-08-01T16:27:31.436Z,7.00
2022-08-01T16:29:57.721Z,6.60
2022-08-01T16:32:26.527Z,6.70
2022-08-01T16:34:56.473Z,6.90
2022-08-01T16:37:22.715Z,6.40
2022-08-01T16:39:49.043Z,6.20
2022-08-01T16:42:16.195Z,7.40
2022-08-01T16:44:44.293Z,6.50
2022-08-01T16:47:10.999Z,7.10
2022-08-01T16:49:37.758Z,7.00
2022-08-01T16:52:04.640Z,6.70
2022-08-01T16:54:31.187Z,6.90
2022-08-01T16:57:08.251Z,6.60
2022-08-01T16:59:41.343Z,7.10
2022-08-01T17:02:10.208Z,7.30
2022-08-01T17:04:36.672Z,7.60
2022-08-01T17:07:02.955Z,7.00
2022-08-01T17:09:29.332Z,7.50
2022-08-01T17:11:55.717Z,7.30
2022-08-01T17:14:22.000Z,7.70
2022-08-01T17:16:48.579Z,7.90
2022-08-01T17:19:15.093Z,8.00
2022-08-01T17:21:42.075Z,7.60
2022-08-01T17:24:09.207Z,7.10
2022-08-01T17:26:35.553Z,8.30
2022-08-01T17:29:01.790Z,7.30
2022-08-01T17:31:28.104Z,7.80
2022-08-01T17:33:55.663Z,7.90
2022-08-01T17:36:22.287Z,7.70
2022-08-01T17:38:48.677Z,8.20
2022-08-01T17:41:15.448Z,8.50
2022-08-01T17:43:41.747Z,8.00
2022-08-01T17:46:08.099Z,8.60
2022-08-01T17:48:34.627Z,8.50
2022-08-01T17:51:02.005Z,8.90
2022-08-01T17:53:28.430Z,8.90
2022-08-01T17:55:59.908Z,8.50
2022-08-01T17:58:36.537Z,9.60
2022-08-01T18:01:14.436Z,9.60
2022-08-01T18:03:41.692Z,9.70
2022-08-01T18:06:09.901Z,10.30
2022-08-01T18:08:39.601Z,10.60
2022-08-01T18:11:05.926Z,10.20
2022-08-01T18:13:33.531Z,9.50
2022-08-01T18:16:00.011Z,9.30
2022-08-01T18:18:33.240Z,10.50
2022-08-01T18:21:01.917Z,11.30
2022-08-01T18:23:28.180Z,10.70
2022-08-01T18:25:54.647Z,10.90
2022-08-01T18:28:31.350Z,10.80
2022-08-01T18:31:00.305Z,10.60
2022-08-01T18:33:26.671Z,10.20
2022-08-01T18:35:55.655Z,9.90
2022-08-01T18:38:28.633Z,10.20
2022-08-01T18:40:55.256Z,11.40
2022-08-01T18:43:21.525Z,11.10
2022-08-01T18:45:47.728Z,10.70
2022-08-01T18:48:13.998Z,10.60
2022-08-01T18:50:40.362Z,10.80
2022-08-01T18:53:07.112Z,10.20
2022-08-01T18:55:33.341Z,12.00
2022-08-01T18:57:59.593Z,10.90
2022-08-01T19:00:25.918Z,12.10
2022-08-01T19:02:52.544Z,11.60
2022-08-01T19:05:19.039Z,11.70
2022-08-01T19:08:06.588Z,13.10
2022-08-01T19:10:31.614Z,11.10
2022-08-01T19:12:59.645Z,12.30
2022-08-01T19:15:26.103Z,12.70
2022-08-01T19:17:52.397Z,12.10
2022-08-01T19:20:18.646Z,13.10
2022-08-01T19:22:44.997Z,13.60
2022-08-01T19:25:14.383Z,12.70
2022-08-01T19:27:45.506Z,12.60
2022-08-01T19:30:12.339Z,11.90
2022-08-01T19:32:38.937Z,13.60
2022-08-01T19:35:07.923Z,13.70
2022-08-01T19:37:34.502Z,14.10
2022-08-01T19:40:00.959Z,13.90
2022-08-01T19:42:29.371Z,14.30
2022-08-01T19:44:55.838Z,13.90
2022-08-01T19:47:22.235Z,15.00
2022-08-01T19:49:48.728Z,14.80
2022-08-01T19:52:17.080Z,14.60
2022-08-01T19:54:44.925Z,14.60
2022-08-01T19:57:13.513Z,13.90
2022-08-01T19:59:40.395Z,14.30
2022-08-01T20:02:07.285Z,14.80
2022-08-01T20:04:34.324Z,14.00
2022-08-01T20:07:02.383Z,14.30
2022-08-01T20:09:30.501Z,14.40
2022-08-01T20:11:56.771Z,14.60
2022-08-01T20:14:24.808Z,14.40
2022-08-01T20:16:52.909Z,14.20
2022-08-01T20:19:20.810Z,15.20
2022-08-01T20:22:02.797Z,13.50
2022-08-01T20:24:40.901Z,14.10
2022-08-01T20:27:08.721Z,15.00
2022-08-01T20:29:35.983Z,15.40
2022-08-01T20:32:03.449Z,14.60
2022-08-01T20:34:33.471Z,15.10
2022-08-01T20:36:59.999Z,15.10
2022-08-01T20:39:28.639Z,15.30
2022-08-01T20:42:00.107Z,14.80
2022-08-01T20:44:30.973Z,14.80
2022-08-01T20:47:04.275Z,14.30
2022-08-01T20:49:33.746Z,14.90
2022-08-01T20:52:13.328Z,14.90
2022-08-01T20:54:44.447Z,15.00
2022-08-01T20:57:28.718Z,14.90
2022-08-01T21:00:05.032Z,14.80
2022-08-01T21:02:37.789Z,15.30
2022-08-01T21:05:10.121Z,14.90
2022-08-01T21:07:46.179Z,14.90
2022-08-01T21:10:15.513Z,13.90
2022-08-01T21:12:55.487Z,14.20
2022-08-01T21:15:39.660Z,14.70
2022-08-01T21:18:37.054Z,13.40
2022-08-01T21:21:14.640Z,13.80
2022-08-01T21:24:00.166Z,14.50
2022-08-01T21:26:35.955Z,14.60
2022-08-01T21:29:06.309Z,16.20
2022-08-01T21:31:40.913Z,16.40
2022-08-01T21:34:09.364Z,14.30
2022-08-01T21:36:37.198Z,15.40
2022-08-01T21:39:07.288Z,16.60
2022-08-01T21:42:04.952Z,15.50
2022-08-01T21:44:28.892Z,16.20
2022-08-01T21:46:59.829Z,18.30
2022-08-01T21:49:27.597Z,16.20
2022-08-01T21:52:05.307Z,16.30
2022-08-01T21:55:02.257Z,16.10
2022-08-01T21:58:35.179Z,17.80
2022-08-01T22:01:16.659Z,17.40
2022-08-01T22:03:48.957Z,18.50
2022-08-01T22:06:20.072Z,19.50
2022-08-01T22:08:56.991Z,19.80
2022-08-01T22:11:31.575Z,18.90
2022-08-01T22:14:02.947Z,20.00
2022-08-01T22:16:32.602Z,17.60
2022-08-01T22:19:04.226Z,18.80
2022-08-01T22:21:34.138Z,18.40
2022-08-01T22:24:03.304Z,18.90
2022-08-01T22:26:32.309Z,19.30
2022-08-01T22:28:59.995Z,19.40
2022-08-01T22:31:28.457Z,19.50
2022-08-01T22:33:56.231Z,19.70
2022-08-01T22:36:23.868Z,19.90
2022-08-01T22:38:51.534Z,21.30
2022-08-01T22:41:23.356Z,22.50
2022-08-01T22:44:02.353Z,20.50
2022-08-01T22:46:52.790Z,21.10
2022-08-01T22:49:31.729Z,20.90
2022-08-01T22:52:27.780Z,21.70
2022-08-01T22:55:04.696Z,21.30
2022-08-01T22:57:52.162Z,21.80
2022-08-01T23:00:19.848Z,22.40
2022-08-01T23:02:53.738Z,22.50
2022-08-01T23:05:22.923Z,24.30
2022-08-01T23:07:53.405Z,24.70
2022-08-01T23:10:22.483Z,23.90
2022-08-01T23:12:51.497Z,22.70
2022-08-01T23:15:20.342Z,23.70
2022-08-01T23:17:49.182Z,25.50
2022-08-01T23:20:17.348Z,25.00
2022-08-01T23:22:45.307Z,26.00
2022-08-01T23:25:15.389Z,26.30
2022-08-01T23:27:54.199Z,26.40
2022-08-01T23:30:35.124Z,27.70
2022-08-01T23:33:03.295Z,27.70
2022-08-01T23:35:31.050Z,28.10
2022-08-01T23:38:02.193Z,28.00
2022-08-01T23:40:32.389Z,29.10
2022-08-01T23:43:01.479Z,29.20
2022-08-01T23:45:38.198Z,29.80
2022-08-01T23:48:17.482Z,29.10
2022-08-01T23:50:45.316Z,29.80
2022-08-01T23:53:13.536Z,30.00
2022-08-01T23:55:43.309Z,31.20
2022-08-01T23:58:12.321Z,28.40
